Weather observations for the past three days for
Fairbanks, Eielson Air Force Base
| Date | Time (akdt) | Wind (mph) | Vis. (mi.) | Weather | Sky Cond. | Temperature (ºF) | Relative Humidity | Wind Chill (°F) | Heat Index (°F) | Pressure | Precipitation (in) | ||||||
|---|---|---|---|---|---|---|---|---|---|---|---|---|---|---|---|---|---|
| Air | Dwpt | 6 hour | altimeter (in) | sea level (mb) | 1 hr | 3 hr | 6 hr | ||||||||||
| Max. | Min. | ||||||||||||||||
| 04 | 13:55 | SE 7 | 10.00 | Overcast | FEW060 BKN090 OVC170 | 55.6 | 33.4 | 43% | 29.83 | 1010.7 | |||||||
| 04 | 12:55 | E 9 | 10.00 | Mostly Cloudy | FEW070 BKN120 BKN140 | 54.7 | 34.3 | 46% | 29.86 | 1011.7 | |||||||
| 04 | 11:55 | N 12 | 10.00 | Mostly Cloudy | FEW060 BKN090 | 53.1 | 32.9 | 46% | 29.88 | 1012.4 | |||||||
| 04 | 10:55 | NE 9 | 10.00 | Mostly Cloudy | FEW040 BKN085 BKN100 | 50.9 | 34.3 | 53% | 29.91 | 1013.4 | |||||||
| 04 | 09:55 | NW 6 | 10.00 | Showers in Vicinity | FEW040 BKN055 BKN090 | 46.6 | 30.7 | 46.6 | 35.4 | 54% | 44 | 29.93 | 1014.2 | ||||
| 04 | 08:55 | Calm | 10.00 | Overcast | FEW049 BKN065 OVC095 | 42.6 | 28.4 | 57% | 29.96 | 1015.2 | |||||||
| 04 | 07:55 | Calm | 10.00 | Showers in Vicinity | BKN060 OVC070 | 40.5 | 30 | 66% | 29.96 | 1015.2 | |||||||
| 04 | 06:55 | Calm | 10.00 | Overcast | OVC047 | 37.9 | 30 | 73% | 29.96 | 1015.2 | |||||||
| 04 | 05:55 | Calm | 10.00 | Overcast | FEW050 OVC075 | 37 | 29.1 | 73% | 29.96 | 1015.2 | |||||||
| 04 | 04:55 | Calm | 10.00 | Mostly Cloudy | FEW060 BKN090 | 37 | 28.6 | 72% | 29.96 | 1015.2 | |||||||
| 04 | 03:55 | Calm | 10.00 | Mostly Cloudy | SCT090 BKN110 | 37 | 29.1 | 47.8 | 37 | 73% | 29.96 | 1015.2 | |||||
| 04 | 00:55 | Calm | 10.00 | Mostly Cloudy | FEW090 BKN110 | 41.2 | 27.9 | 59% | 29.98 | 1015.9 | |||||||
| 03 | 23:55 | W 3 | 10.00 | Mostly Cloudy | FEW070 BKN100 | 42.6 | 28.4 | 57% | 29.98 | 1015.9 | |||||||
| 03 | 22:55 | Calm | 10.00 | Mostly Cloudy | FEW070 BKN110 | 44.4 | 28.4 | 53% | 29.99 | 1016.2 | |||||||
| 03 | 21:55 | Calm | 10.00 | Mostly Cloudy | FEW075 SCT130 BKN150 | 46.2 | 27.7 | 55.4 | 46.2 | 49% | 29.99 | 1016.2 | |||||
| 03 | 20:55 | W 3 | 10.00 | Mostly Cloudy | FEW075 SCT160 BKN200 | 50.2 | 28 | 42% | 29.99 | 1016.2 | |||||||
| 03 | 19:55 | W 5 | 10.00 | Mostly Cloudy | SCT075 BKN200 | 52.9 | 26.6 | 36% | 30 | 1016.5 | |||||||
| 03 | 18:55 | NW 6 | 10.00 | Mostly Cloudy | SCT080 SCT120 BKN200 | 54.3 | 24.3 | 31% | 30 | 1016.6 | |||||||
| 03 | 17:55 | W 8 | 10.00 | Mostly Cloudy | SCT080 SCT110 BKN200 | 55.4 | 26.1 | 32% | 30.01 | 1017.0 | |||||||
| 03 | 16:55 | SW 9 | 10.00 | Mostly Cloudy | BKN075 BKN110 BKN200 | 53.2 | 24.1 | 32% | 30.03 | 1017.6 | |||||||
| 03 | 15:55 | Vrbl 6 | 10.00 | Mostly Cloudy | BKN070 BKN200 | 53.8 | 25.3 | 55.6 | 46.9 | 33% | 30.03 | 1017.6 | |||||
| 03 | 14:55 | NW 7 | 10.00 | Mostly Cloudy | SCT060 SCT080 BKN200 | 53.1 | 25.3 | 34% | 30.05 | 1018.3 | |||||||
| 03 | 13:55 | SE 5 | 10.00 | Mostly Cloudy | SCT080 BKN200 | 52.2 | 26.1 | 36% | 30.07 | 1019.0 | |||||||
| 03 | 12:55 | W 6 | 10.00 | Partly Cloudy | SCT080 SCT160 SCT210 | 52.2 | 24.6 | 34% | 30.07 | 1019.0 | |||||||
| 03 | 11:55 | S 12 | 10.00 | Partly Cloudy | FEW080 FEW120 SCT200 | 50.4 | 25.7 | 38% | 30.07 | 1019.0 | |||||||
| 03 | 10:55 | W 6 | 10.00 | Partly Cloudy | FEW070 SCT120 | 47.7 | 24.4 | 40% | 45 | 30.07 | 1019.0 | ||||||
| 03 | 09:55 | Vrbl 3 | 10.00 | A Few Clouds | FEW070 FEW120 | 47.7 | 28.9 | 47.7 | 29.7 | 48% | 30.06 | 1018.6 | |||||
| 03 | 08:55 | Vrbl 5 | 10.00 | A Few Clouds | FEW090 FEW120 | 41.5 | 30.7 | 66% | 39 | 30.07 | 1019.0 | ||||||
| 03 | 07:55 | Calm | 10.00 | Partly Cloudy | FEW090 SCT120 | 38.5 | 29.5 | 70% | 30.06 | 1018.6 | |||||||
| 03 | 06:55 | Calm | 10.00 | Mostly Cloudy | BKN080 BKN120 | 33.1 | 27.5 | 80% | 30.05 | 1018.3 | |||||||
| 03 | 05:55 | Calm | 10.00 | Mostly Cloudy | SCT085 BKN120 | 30.4 | 26.6 | 86% | 30.05 | 1018.4 | |||||||
| 03 | 04:55 | Calm | 10.00 | Mostly Cloudy | SCT095 BKN120 BKN180 | 31.8 | 27.3 | 83% | 30.03 | 1017.6 | |||||||
| 03 | 03:55 | Calm | 10.00 | Mostly Cloudy | SCT090 BKN130 | 32.4 | 27 | 42.4 | 30.7 | 81% | 30.02 | 1017.3 | |||||
| 03 | 02:55 | E 7 | 10.00 | Mostly Cloudy | SCT080 BKN120 | 32.9 | 28 | 82% | 27 | 30.02 | 1017.3 | ||||||
| 03 | 01:55 | E 5 | 10.00 | Partly Cloudy | SCT120 | 32.5 | 27.3 | 81% | 29 | 30.01 | 1017.0 | ||||||
| 03 | 00:55 | Calm | 10.00 | A Few Clouds | FEW120 | 32.4 | 26.6 | 79% | 29.99 | 1016.3 | |||||||
| 02 | 23:55 | Calm | 10.00 | Partly Cloudy | FEW070 SCT120 SCT180 | 32.5 | 29.1 | 87% | 29.98 | 1015.9 | |||||||
| 02 | 22:55 | Calm | 10.00 | Partly Cloudy | SCT070 SCT180 | 35.4 | 29.8 | 80% | 29.97 | 1015.6 | |||||||
| 02 | 21:55 | Calm | 10.00 | Partly Cloudy | SCT080 SCT180 | 42.6 | 29.7 | 56.1 | 42.6 | 60% | 29.96 | 1015.2 | |||||
| 02 | 20:55 | SW 3 | 10.00 | Mostly Cloudy | SCT080 BKN180 | 46.4 | 29.3 | 51% | 29.94 | 1014.5 | |||||||
| 02 | 19:55 | SW 10 | 10.00 | Showers in Vicinity | FEW049 BKN060 BKN100 | 48.7 | 28.9 | 46% | 45 | 29.91 | 1013.6 | ||||||
| 02 | 18:55 | S 7 | 10.00 | Mostly Cloudy | SCT060 BKN110 BKN160 | 50 | 28.4 | 43% | 48 | 29.89 | 1012.9 | ||||||
| 02 | 17:55 | SW 12 | 10.00 | Mostly Cloudy | SCT070 BKN110 BKN200 | 52.5 | 22.8 | 31% | 29.85 | 1011.5 | |||||||
| 02 | 16:55 | S 10 | 10.00 | Mostly Cloudy | FEW070 BKN085 BKN150 | 52.5 | 21.2 | 29% | 29.83 | 1010.8 | |||||||
| 02 | 15:55 | S 16 G 26 | 10.00 | Mostly Cloudy | SCT080 BKN130 BKN180 | 55.4 | 20.1 | 57.4 | 49.1 | 25% | 29.81 | 1010.1 | |||||
| 02 | 14:55 | S 15 G 28 | 10.00 | Mostly Cloudy | SCT080 BKN090 BKN140 | 56.3 | 20.8 | 25% | 29.78 | 1009.0 | |||||||
| 02 | 13:55 | S 14 G 22 | 10.00 | Mostly Cloudy | FEW060 BKN085 BKN170 | 53.6 | 21.2 | 28% | 29.78 | 1009.1 | |||||||
| 02 | 12:55 | S 14 | 10.00 | Mostly Cloudy | FEW050 BKN100 BKN150 | 53.6 | 22.1 | 29% | 29.76 | 1008.4 | |||||||
| 02 | 11:55 | S 12 | 10.00 | Mostly Cloudy | FEW050 BKN120 BKN150 | 52.5 | 21.9 | 30% | 29.74 | 1007.7 | |||||||
| 02 | 10:55 | S 9 | 10.00 | Mostly Cloudy | FEW070 BKN100 BKN180 | 50.7 | 24.8 | 36% | 29.71 | 1006.7 | |||||||
| 02 | 09:55 | E 3 | 10.00 | Mostly Cloudy | FEW070 BKN085 BKN130 | 49.5 | 26.8 | 50.4 | 32.4 | 41% | 29.69 | 1006.0 | |||||
| 02 | 08:55 | E 7 | 10.00 | Mostly Cloudy | FEW080 BKN100 BKN150 | 45.5 | 31.1 | 57% | 42 | 29.67 | 1005.3 | ||||||
| 02 | 07:55 | E 7 | 10.00 | Mostly Cloudy | BKN080 BKN120 | 38.1 | 29.8 | 72% | 34 | 29.65 | 1004.7 | ||||||
| 02 | 06:55 | E 7 | 10.00 | Mostly Cloudy | FEW065 BKN090 BKN120 | 36.5 | 30.4 | 79% | 32 | 29.63 | 1004.0 | ||||||
| 02 | 05:55 | E 6 | 10.00 | Mostly Cloudy | BKN070 BKN120 | 34.3 | 29.1 | 81% | 30 | 29.61 | 1003.4 | ||||||
| 02 | 04:55 | W 3 | 10.00 | Mostly Cloudy | FEW085 BKN090 BKN120 | 39.7 | 28.9 | 65% | 29.57 | 1002.0 | |||||||
| 02 | 03:55 | E 6 | 10.00 | Mostly Cloudy | BKN095 BKN120 | 36 | 29.1 | 48 | 34.9 | 76% | 32 | 29.53 | 1000.6 | ||||
| 02 | 01:55 | Calm | 10.00 | Mostly Cloudy | BKN100 | 38.8 | 30.2 | 71% | 29.44 | 997.5 | |||||||
| 02 | 00:55 | Calm | 10.00 | Mostly Cloudy | BKN075 BKN100 | 39.6 | 31.3 | 72% | 29.4 | 996.2 | |||||||
| 01 | 23:55 | Calm | 10.00 | Mostly Cloudy | BKN070 BKN090 | 41.7 | 31.3 | 67% | 29.37 | 995.2 | |||||||
| 01 | 22:55 | Calm | 10.00 | Mostly Cloudy | SCT060 BKN085 BKN140 | 39.6 | 29.5 | 67% | 29.36 | 994.8 | |||||||
| 01 | 21:55 | Calm | 10.00 | Mostly Cloudy | BKN070 BKN140 | 46 | 29.5 | 52.3 | 43.5 | 53% | 29.35 | 994.4 | |||||
| 01 | 20:55 | N 6 | 10.00 | Mostly Cloudy | BKN080 BKN140 | 48.2 | 27.9 | 45% | 46 | 29.35 | 994.4 | ||||||
| 01 | 19:55 | Vrbl 5 | 10.00 | Mostly Cloudy | FEW060 SCT080 BKN140 BKN200 | 48.9 | 28 | 44% | 48 | 29.36 | 994.8 | ||||||
| 01 | 18:55 | E 12 | 10.00 | Mostly Cloudy | BKN085 BKN110 BKN200 | 49.1 | 29.3 | 47% | 45 | 29.38 | 995.5 | ||||||
| 01 | 17:55 | NE 13 G 17 | 10.00 | Mostly Cloudy | FEW050 BKN090 BKN150 BKN200 | 49.8 | 25.9 | 39% | 45 | 29.38 | 995.5 | ||||||
| 01 | 16:55 | NE 12 G 17 | 10.00 | Mostly Cloudy | FEW050 BKN100 BKN120 BKN200 | 50.7 | 23.4 | 34% | 29.39 | 995.8 | |||||||
| 01 | 14:55 | NE 14 | 10.00 | Mostly Cloudy | FEW050 SCT100 BKN120 BKN150 BKN200 | 52.2 | 22.5 | 31% | 29.46 | 998.2 | |||||||
| Date | Time (akdt) | Wind (mph) | Vis. (mi.) | Weather | Sky Cond. | Air | Dwpt | Max. | Min. | Relative Humidity | Wind Chill (°F) | Heat Index (°F) | altimeter (in) | sea level (mb) | 1 hr | 3 hr | 6 hr |
| 6 hour | |||||||||||||||||
| Temperature (ºF) | Pressure | Precipitation (in) | |||||||||||||||